Forside
METAR-TAF:

METAR-TAF

Lufthavne :

Broome, Australien

Breddekreds: 17-57S, længdekreds: 122-13E, højde: 17 m

Aktuelle vejr

Denne rapport blev lavet for 40 minutter siden, kl. 23:00 UTC
Vind 7 kt fra syd
Temperatur 26°C
Fugtighed 84%
Tryk 1014 hPa
Sigt 10 km eller mere
Spredte skyer i en højde af 700 ft

METAR: YBRM 192300Z AUTO 19007KT 9999 // SCT007 26/23 Q1014

Tid: 07:40 (23:40 UTC)

Vejrudsigter

Denne rapport blev lavet for 1 time og 42 minutter siden, kl. 21:58 UTC
Foreløbig gælder fra 19 på 21 UTC til 20 på 18 UTC
Vind 5 kt fra sydsydvest
Sigt 10 km eller mere
ingen skyer under 1500m og ingen cumulonimbus
Fra 20 på 0400 UTC
Vind 12 kt fra vest
Sigt 10 km eller mere
ingen skyer under 1500m og ingen cumulonimbus
Fra 20 på 1400 UTC
Vind 8 kt fra vestsydvest
Sigt 10 km eller mere
ingen skyer under 1500m og ingen cumulonimbus

TAF: YBRM 192158Z 1921/2018 21005KT CAVOK FM200400 27012KT CAVOK FM201400 24008KT CAVOK

Vejrobservationer og prognoser fra mere end 4000 lufthavne (METAR og TAF).

De gule og røde prikker repræsenterer de meteorologiske stationer.

Flyt musen over at se navnet på stationen.

Så klik over at se vejr observationer og prognoser.

At skifte det kort: Klik på de grønne knapper med et sort kors for at zoome ind; på den grønne knap med en bindestreg for at zoome ud; eller på de grønne pile for tilstødende kort.


METAR-TAF: